Heloise — 3FLA7 — position and weather

sailwx.info

Track history (hours):
 
Tides and Currents Weather Stations Pressure Air Temp Water Temp Dewpoint Dewpoint Depression Visibility Wind Speed Wind Dir Waves Ship Positions

Heloise

Last reported at 2014-Oct-24 21:34 UTC. Time now 2014-Oct-30 17:29 UTC.
Position N 46°28' W 072°15'.

Length 186 m; draft 8 m.

Type: Cargo ship. MMSI: 352302000.

Date/timePositionNaut miles runAvg speedWind from/ knotsBaromVisibWave heightAir tempDewpointWater temp
2014-Oct-24 21:34N 46°28' W 072°15'1414.2
2014-Oct-24 20:34N 46°20' W 072°32'1211.5
2014-Oct-24 19:33N 46°14' W 072°46'2512.5
2014-Oct-24 17:33N 45°57' W 073°13'1313.2
2014-Oct-24 16:33N 45°46' W 073°23'1312.6
2014-Oct-24 15:33N 45°34' W 073°30'5 4.8
2014-Oct-24 14:33N 45°30' W 073°31'3 2.5
2014-Oct-24 13:33N 45°27' W 073°30'4 3.8
2014-Oct-24 12:33N 45°24' W 073°34'4 3.6
2014-Oct-24 11:33N 45°24' W 073°39'8 7.8
2014-Oct-24 10:33N 45°22' W 073°50'5 4.9
2014-Oct-24 09:33N 45°19' W 073°55'1 0.9
2014-Oct-24 08:33N 45°18' W 073°56'5 5.1
2014-Oct-24 07:33N 45°14' W 073°60'1110.7
2014-Oct-24 06:33N 45°13' W 074°15'1312.3
2014-Oct-24 05:29N 45°05' W 074°30'96 8.0
2014-Oct-23 17:33N 44°10' W 076°19'1110.5
2014-Oct-23 16:33N 44°01' W 076°28'  
Track history (hours):
 
Tides and Currents Weather Stations Pressure Air Temp Water Temp Dewpoint Dewpoint Depression Visibility Wind Speed Wind Dir Waves Ship Positions

Heloise

Last reported at 2014-Oct-24 21:34 UTC. Time now 2014-Oct-30 17:29 UTC.
Position N 46°28' W 072°15'.

Length 186 m; draft 8 m.

Type: Cargo ship. MMSI: 352302000.

Date/timePositionNaut miles runAvg speedWind from/ knotsBaromVisibWave heightAir tempDewpointWater temp
2014-Oct-24 21:34N 46°28' W 072°15'1414.2
2014-Oct-24 20:34N 46°20' W 072°32'1211.5
2014-Oct-24 19:33N 46°14' W 072°46'2512.5
2014-Oct-24 17:33N 45°57' W 073°13'1313.2
2014-Oct-24 16:33N 45°46' W 073°23'1312.6
2014-Oct-24 15:33N 45°34' W 073°30'5 4.8
2014-Oct-24 14:33N 45°30' W 073°31'3 2.5
2014-Oct-24 13:33N 45°27' W 073°30'4 3.8
2014-Oct-24 12:33N 45°24' W 073°34'4 3.6
2014-Oct-24 11:33N 45°24' W 073°39'8 7.8
2014-Oct-24 10:33N 45°22' W 073°50'5 4.9
2014-Oct-24 09:33N 45°19' W 073°55'1 0.9
2014-Oct-24 08:33N 45°18' W 073°56'5 5.1
2014-Oct-24 07:33N 45°14' W 073°60'1110.7
2014-Oct-24 06:33N 45°13' W 074°15'1312.3
2014-Oct-24 05:29N 45°05' W 074°30'96 8.0
2014-Oct-23 17:33N 44°10' W 076°19'1110.5
2014-Oct-23 16:33N 44°01' W 076°28'  

Dump ship's entire track history